Time;durP1;ratioP1;P1;durP2;ratioP2;P2;SDS_P1;SDS_P2;PMS_P1;PMS_P2;Temp;Humidity;BMP_temperature;BMP_pressure;BME280_temperature;BME280_humidity;BME280_pressure;Samples;Min_cycle;Max_cycle;Signal;HPM_P1;HPM_P2
2023/07/02 00:00:09;;;;;;;3.60;2.70;;;20.20;93.20;;;;;;5038281;28;20668;-81
2023/07/02 00:02:36;;;;;;;2.72;2.10;;;20.20;93.20;;;;;;5037689;28;20077;-81
2023/07/02 00:05:01;;;;;;;4.57;2.40;;;20.20;93.10;;;;;;5039280;28;20021;-81
2023/07/02 00:07:27;;;;;;;5.45;2.10;;;20.20;93.10;;;;;;5046875;28;20481;-81
2023/07/02 00:09:53;;;;;;;6.10;2.17;;;20.20;93.10;;;;;;5043712;28;20057;-82
2023/07/02 00:12:18;;;;;;;3.40;1.85;;;20.20;93.10;;;;;;5043508;28;20036;-82
2023/07/02 00:14:44;;;;;;;4.70;1.75;;;20.20;93.20;;;;;;5022780;28;20025;-81
2023/07/02 00:17:13;;;;;;;6.07;1.70;;;20.20;93.20;;;;;;5022377;28;20132;-81
2023/07/02 00:19:42;;;;;;;3.17;1.80;;;20.20;93.20;;;;;;5020611;28;20459;-81
2023/07/02 00:22:09;;;;;;;2.37;1.60;;;20.20;93.30;;;;;;5042865;28;20031;-81
2023/07/02 00:24:35;;;;;;;3.20;1.60;;;20.20;93.20;;;;;;5045847;28;20017;-83
2023/07/02 00:27:00;;;;;;;4.03;1.70;;;20.20;93.20;;;;;;5044165;28;20025;-81
2023/07/02 00:29:26;;;;;;;2.63;1.77;;;20.20;93.30;;;;;;5027046;28;20025;-81
2023/07/02 00:31:52;;;;;;;2.85;1.60;;;20.20;93.30;;;;;;5023457;28;20391;-82
2023/07/02 00:34:18;;;;;;;1.75;1.50;;;20.20;93.20;;;;;;5022804;28;20053;-81
2023/07/02 00:36:44;;;;;;;2.53;1.42;;;20.20;93.30;;;;;;5041346;28;20021;-81
2023/07/02 00:39:11;;;;;;;1.80;1.30;;;20.20;93.30;;;;;;5044091;28;20026;-81
2023/07/02 00:41:37;;;;;;;1.55;1.30;;;20.20;93.20;;;;;;5044310;28;20371;-81
2023/07/02 00:44:03;;;;;;;3.40;1.65;;;20.20;93.20;;;;;;5023400;28;20138;-82
2023/07/02 00:46:30;;;;;;;9.95;1.55;;;20.20;93.20;;;;;;5044735;28;20028;-81
2023/07/02 00:48:56;;;;;;;2.92;1.30;;;20.20;93.20;;;;;;5040389;28;20029;-81
2023/07/02 00:51:26;;;;;;;1.90;1.30;;;20.20;93.20;;;;;;5041705;28;20124;-81
2023/07/02 00:53:54;;;;;;;2.00;1.58;;;20.20;93.30;;;;;;5041066;28;20017;-81
2023/07/02 00:56:20;;;;;;;1.27;1.17;;;20.20;93.40;;;;;;5042832;28;20477;-80
2023/07/02 00:58:50;;;;;;;3.88;1.95;;;20.10;93.50;;;;;;5042223;28;20017;-81
2023/07/02 01:01:27;;;;;;;3.47;1.63;;;20.10;93.30;;;;;;5043655;28;20186;-81
2023/07/02 01:04:01;;;;;;;2.20;1.70;;;20.10;93.30;;;;;;5038692;28;20284;-81
2023/07/02 01:06:32;;;;;;;2.72;1.65;;;20.10;93.20;;;;;;5041193;28;20017;-80
2023/07/02 01:09:05;;;;;;;3.20;2.00;;;20.10;93.20;;;;;;5038807;28;20116;-80
2023/07/02 01:11:34;;;;;;;3.95;1.90;;;20.10;93.10;;;;;;5028324;28;20073;-81
2023/07/02 01:14:19;;;;;;;4.50;2.42;;;20.20;93.00;;;;;;5040268;28;20010;-82
2023/07/02 01:16:47;;;;;;;4.22;1.90;;;20.10;93.00;;;;;;5041604;28;20036;-80
2023/07/02 01:19:43;;;;;;;2.83;1.75;;;20.10;93.00;;;;;;5044377;28;20037;-81
2023/07/02 01:22:10;;;;;;;8.57;2.25;;;20.10;92.90;;;;;;5023165;28;20036;-81
2023/07/02 01:24:38;;;;;;;2.47;1.50;;;20.10;92.80;;;;;;5043388;28;20018;-81
2023/07/02 01:27:04;;;;;;;2.20;1.70;;;20.10;92.80;;;;;;5036514;28;20096;-81
2023/07/02 01:29:30;;;;;;;2.70;1.75;;;20.10;92.70;;;;;;5035869;28;20108;-81
2023/07/02 01:31:57;;;;;;;6.68;1.90;;;20.10;93.00;;;;;;5025246;28;20104;-81
2023/07/02 01:34:23;;;;;;;4.85;1.92;;;20.10;92.60;;;;;;5022126;28;20013;-80
2023/07/02 01:36:48;;;;;;;5.25;2.13;;;20.10;92.60;;;;;;5039610;28;20543;-81
2023/07/02 01:39:15;;;;;;;3.53;1.77;;;20.10;92.50;;;;;;5021990;28;20068;-81
2023/07/02 01:41:51;;;;;;;3.70;1.88;;;20.10;92.40;;;;;;5035771;28;20430;-80
2023/07/02 01:44:17;;;;;;;2.58;2.00;;;20.10;92.40;;;;;;5035240;28;20040;-81
2023/07/02 01:46:44;;;;;;;5.45;1.75;;;20.10;92.30;;;;;;5035410;28;20110;-81
2023/07/02 01:49:10;;;;;;;11.07;2.03;;;20.10;92.30;;;;;;5041619;28;20477;-80
2023/07/02 01:51:36;;;;;;;10.95;2.10;;;20.10;92.30;;;;;;5025226;28;20090;-81
2023/07/02 01:54:01;;;;;;;4.72;1.83;;;20.10;92.30;;;;;;5038912;28;20022;-81
2023/07/02 01:56:29;;;;;;;3.67;1.67;;;20.10;92.20;;;;;;5048704;28;20436;-81
2023/07/02 01:58:54;;;;;;;3.00;2.08;;;20.10;92.20;;;;;;5036363;28;20100;-81
2023/07/02 02:01:20;;;;;;;6.35;1.75;;;20.10;92.20;;;;;;5017811;28;20104;-81
2023/07/02 02:03:45;;;;;;;5.97;2.10;;;20.10;92.20;;;;;;5040336;28;20354;-81
2023/07/02 02:06:11;;;;;;;4.70;1.77;;;20.10;92.20;;;;;;5021886;28;20682;-82
2023/07/02 02:08:37;;;;;;;1.90;1.48;;;20.10;92.10;;;;;;5025142;28;20021;-81
2023/07/02 02:11:02;;;;;;;4.28;1.73;;;20.10;92.10;;;;;;5036492;28;20076;-81
2023/07/02 02:13:28;;;;;;;2.33;1.33;;;20.10;92.10;;;;;;5038983;28;20497;-81
2023/07/02 02:15:54;;;;;;;2.08;1.67;;;20.10;92.10;;;;;;5036284;28;20470;-81
2023/07/02 02:18:20;;;;;;;3.03;1.90;;;20.10;92.10;;;;;;5042888;28;20033;-81
2023/07/02 02:20:45;;;;;;;4.57;2.00;;;20.10;92.10;;;;;;5063568;28;20024;-81
2023/07/02 02:23:11;;;;;;;2.72;1.60;;;20.10;92.00;;;;;;5059938;28;20091;-81
2023/07/02 02:25:37;;;;;;;1.83;1.42;;;20.10;92.00;;;;;;5062117;28;20056;-81
2023/07/02 02:28:02;;;;;;;4.93;1.70;;;20.10;92.00;;;;;;5059299;28;20029;-81
2023/07/02 02:30:28;;;;;;;2.60;1.85;;;20.10;92.00;;;;;;5059958;28;20091;-81
2023/07/02 02:32:54;;;;;;;1.95;1.75;;;20.10;92.00;;;;;;5058264;28;20024;-81
2023/07/02 02:35:19;;;;;;;10.43;2.03;;;20.10;92.00;;;;;;5065372;28;20138;-81
2023/07/02 02:37:45;;;;;;;3.67;1.83;;;20.10;92.00;;;;;;5056031;28;21020;-81
2023/07/02 02:40:11;;;;;;;2.60;1.73;;;20.00;92.00;;;;;;5063632;28;20020;-81
2023/07/02 02:42:38;;;;;;;3.30;1.80;;;20.10;92.00;;;;;;5063228;28;20338;-81
2023/07/02 02:45:04;;;;;;;2.53;1.88;;;20.00;92.00;;;;;;5061731;28;20378;-81
2023/07/02 02:47:30;;;;;;;3.35;1.80;;;20.00;92.00;;;;;;5064453;28;20066;-80
2023/07/02 02:49:55;;;;;;;3.78;2.03;;;20.00;92.00;;;;;;5049521;28;20411;-81
2023/07/02 02:52:21;;;;;;;3.95;2.17;;;20.00;92.00;;;;;;5064321;28;20037;-81
2023/07/02 02:54:47;;;;;;;2.75;1.70;;;20.10;92.00;;;;;;5062559;28;20021;-81
2023/07/02 02:57:13;;;;;;;2.45;1.85;;;20.00;91.90;;;;;;5060179;28;20017;-81
2023/07/02 02:59:39;;;;;;;2.58;1.75;;;20.00;92.00;;;;;;5065016;28;20016;-81
2023/07/02 03:02:05;;;;;;;4.10;1.90;;;20.00;92.10;;;;;;5064563;28;20021;-81
2023/07/02 03:04:30;;;;;;;4.53;2.08;;;20.00;91.90;;;;;;5067278;28;20017;-81
2023/07/02 03:06:56;;;;;;;3.17;1.95;;;20.00;91.90;;;;;;5068426;28;20104;-81
2023/07/02 03:09:22;;;;;;;2.10;1.88;;;20.00;92.00;;;;;;5065022;28;20025;-81
2023/07/02 03:11:48;;;;;;;3.67;1.88;;;20.00;91.90;;;;;;5061440;28;20123;-81
2023/07/02 03:14:17;;;;;;;7.25;2.05;;;20.00;92.00;;;;;;5062855;28;20057;-81
2023/07/02 03:16:45;;;;;;;2.75;2.05;;;20.00;91.90;;;;;;5063738;28;20128;-80
2023/07/02 03:19:10;;;;;;;6.78;1.80;;;20.00;91.90;;;;;;5062317;28;20041;-81
2023/07/02 03:21:36;;;;;;;3.95;1.88;;;20.00;91.90;;;;;;5063912;28;20343;-81
2023/07/02 03:24:02;;;;;;;3.75;1.90;;;20.00;91.90;;;;;;5065484;28;20381;-81
2023/07/02 03:26:27;;;;;;;3.40;2.00;;;20.00;91.90;;;;;;5064665;28;20021;-80
2023/07/02 03:28:53;;;;;;;10.15;2.00;;;20.00;91.90;;;;;;5063686;28;20055;-81
2023/07/02 03:31:18;;;;;;;5.25;1.90;;;20.00;91.90;;;;;;5046016;28;20048;-81
2023/07/02 03:33:44;;;;;;;2.70;1.92;;;20.00;91.90;;;;;;5049766;28;20028;-81
2023/07/02 03:36:10;;;;;;;2.05;1.70;;;20.00;91.90;;;;;;5069327;28;20024;-81
2023/07/02 03:38:35;;;;;;;3.72;1.65;;;20.00;91.90;;;;;;5068557;28;20008;-81
2023/07/02 03:41:01;;;;;;;2.63;2.05;;;20.00;91.90;;;;;;5052091;28;20020;-80
2023/07/02 03:43:26;;;;;;;1.95;1.70;;;20.00;91.90;;;;;;5045102;28;20063;-81
2023/07/02 03:45:53;;;;;;;3.05;1.80;;;20.00;91.90;;;;;;5066406;28;20020;-81
2023/07/02 03:48:18;;;;;;;3.90;1.92;;;20.00;91.80;;;;;;5063206;28;20017;-81
2023/07/02 03:50:44;;;;;;;4.38;2.22;;;20.00;91.80;;;;;;5034665;28;20040;-81
2023/07/02 03:53:10;;;;;;;2.10;1.70;;;20.00;91.80;;;;;;5065716;28;20035;-81
2023/07/02 03:55:35;;;;;;;5.50;2.08;;;20.00;91.80;;;;;;5048961;28;20016;-81
2023/07/02 03:58:01;;;;;;;3.03;1.92;;;20.00;91.80;;;;;;5048268;28;20032;-80
2023/07/02 04:00:27;;;;;;;4.10;2.35;;;20.00;91.80;;;;;;5047129;28;20102;-81
2023/07/02 04:02:53;;;;;;;5.45;2.00;;;20.00;91.80;;;;;;5069094;28;20021;-81
2023/07/02 04:05:19;;;;;;;3.65;2.00;;;20.00;91.90;;;;;;5067584;28;20550;-81
2023/07/02 04:07:45;;;;;;;6.15;1.70;;;20.00;91.80;;;;;;5067818;28;20035;-80
2023/07/02 04:10:11;;;;;;;3.30;2.00;;;20.00;91.80;;;;;;5049130;28;20024;-80
2023/07/02 04:12:36;;;;;;;2.47;2.00;;;20.00;91.80;;;;;;5060424;28;20025;-81
2023/07/02 04:15:03;;;;;;;5.13;2.42;;;20.00;91.80;;;;;;5065143;28;20099;-80
2023/07/02 04:17:28;;;;;;;4.28;2.08;;;20.00;91.90;;;;;;5064621;28;20044;-81
2023/07/02 04:19:54;;;;;;;3.05;1.85;;;20.00;91.80;;;;;;5052327;28;20037;-80
2023/07/02 04:22:20;;;;;;;3.65;2.08;;;20.00;91.80;;;;;;5037995;28;20034;-80
2023/07/02 04:24:48;;;;;;;4.75;2.00;;;20.00;91.90;;;;;;5042355;28;20025;-81
2023/07/02 04:27:17;;;;;;;2.63;1.42;;;20.00;91.90;;;;;;5042231;28;20028;-80
2023/07/02 04:29:44;;;;;;;2.97;2.10;;;20.00;91.90;;;;;;5042383;28;20017;-80
2023/07/02 04:32:09;;;;;;;3.75;1.73;;;20.00;92.00;;;;;;5041822;28;20061;-81
2023/07/02 04:34:36;;;;;;;8.05;2.10;;;20.00;92.00;;;;;;5032417;28;20056;-81
2023/07/02 04:37:03;;;;;;;4.45;1.98;;;20.00;92.00;;;;;;5043875;28;20914;-81
2023/07/02 04:39:29;;;;;;;4.32;2.10;;;19.90;92.10;;;;;;5035030;28;20027;-80
2023/07/02 04:41:55;;;;;;;4.47;2.28;;;19.90;92.10;;;;;;5040187;28;20100;-81
2023/07/02 04:44:28;;;;;;;2.17;1.67;;;19.90;92.10;;;;;;5033748;28;20029;-80
2023/07/02 04:46:58;;;;;;;5.78;2.00;;;20.00;92.20;;;;;;5040553;28;20029;-80
2023/07/02 04:49:23;;;;;;;4.00;2.20;;;19.90;92.10;;;;;;5029095;28;20087;-80
2023/07/02 04:51:49;;;;;;;6.43;2.28;;;19.90;92.20;;;;;;5039759;28;20025;-82
2023/07/02 04:54:18;;;;;;;5.38;2.28;;;19.90;92.20;;;;;;5038179;28;20109;-80
2023/07/02 04:56:43;;;;;;;4.95;2.03;;;19.90;92.20;;;;;;5040417;28;20043;-80
2023/07/02 04:59:09;;;;;;;3.92;2.15;;;19.90;92.20;;;;;;5037859;28;20088;-80
2023/07/02 05:01:34;;;;;;;3.72;2.20;;;19.90;92.20;;;;;;5044408;28;20017;-80
2023/07/02 05:04:00;;;;;;;3.17;2.00;;;19.90;92.20;;;;;;5043332;28;20021;-80
2023/07/02 05:06:26;;;;;;;5.60;2.30;;;19.90;92.20;;;;;;5035316;28;20406;-80
2023/07/02 05:08:52;;;;;;;2.67;1.92;;;19.90;92.20;;;;;;5033938;28;20029;-80
2023/07/02 05:11:18;;;;;;;6.63;1.90;;;20.00;92.20;;;;;;5019176;28;20033;-80
2023/07/02 05:13:43;;;;;;;3.20;2.10;;;19.90;92.20;;;;;;5036979;28;20037;-80
2023/07/02 05:16:10;;;;;;;3.70;2.13;;;19.90;92.20;;;;;;5037717;28;20052;-80
2023/07/02 05:18:36;;;;;;;5.53;2.28;;;19.90;92.20;;;;;;5042133;28;20029;-81
2023/07/02 05:21:01;;;;;;;6.45;2.35;;;19.90;92.20;;;;;;5036174;28;20017;-80
2023/07/02 05:23:27;;;;;;;8.38;2.30;;;19.90;92.20;;;;;;5024821;28;20030;-81
2023/07/02 05:25:53;;;;;;;3.20;2.15;;;19.90;92.20;;;;;;5036694;28;20026;-80
2023/07/02 05:28:18;;;;;;;4.88;2.05;;;19.90;92.20;;;;;;5039037;28;20021;-80
2023/07/02 05:30:44;;;;;;;5.68;2.05;;;19.90;92.20;;;;;;5043941;28;20021;-80
2023/07/02 05:33:09;;;;;;;7.13;1.92;;;19.90;92.20;;;;;;5032795;28;20041;-80
2023/07/02 05:35:35;;;;;;;3.45;2.38;;;19.90;92.20;;;;;;5021880;28;20026;-80
2023/07/02 05:38:01;;;;;;;3.75;2.28;;;19.90;92.20;;;;;;5006851;28;20528;-80
2023/07/02 05:40:26;;;;;;;5.55;2.90;;;19.90;92.20;;;;;;5016996;28;20071;-80
2023/07/02 05:42:52;;;;;;;5.75;1.83;;;19.90;92.20;;;;;;5021153;28;20121;-80
2023/07/02 05:45:17;;;;;;;3.75;1.98;;;19.90;92.20;;;;;;5019202;28;20045;-80
2023/07/02 05:47:43;;;;;;;3.80;1.92;;;19.90;92.20;;;;;;5025181;28;20080;-80
2023/07/02 05:50:09;;;;;;;3.45;1.88;;;19.90;92.20;;;;;;5037359;28;20033;-80
2023/07/02 05:52:34;;;;;;;3.28;1.90;;;19.90;92.30;;;;;;5038161;28;20510;-80
2023/07/02 05:55:00;;;;;;;4.25;1.80;;;19.90;92.30;;;;;;5035813;28;20109;-80
2023/07/02 05:57:26;;;;;;;2.33;1.77;;;19.90;92.30;;;;;;5038051;28;20025;-81
2023/07/02 05:59:52;;;;;;;3.33;2.03;;;19.90;92.30;;;;;;5019417;28;20136;-80
2023/07/02 06:02:17;;;;;;;3.22;1.75;;;19.90;92.30;;;;;;5036517;28;20042;-81
2023/07/02 06:04:43;;;;;;;8.85;1.50;;;19.90;92.40;;;;;;5036737;28;20105;-80
2023/07/02 06:07:08;;;;;;;3.33;1.55;;;19.90;92.30;;;;;;5024591;28;20052;-81
2023/07/02 06:09:34;;;;;;;2.25;1.10;;;19.90;92.30;;;;;;5035650;28;20052;-81
2023/07/02 06:11:59;;;;;;;1.35;1.25;;;19.90;92.40;;;;;;5031052;28;20079;-81
2023/07/02 06:14:26;;;;;;;3.40;1.13;;;19.90;92.40;;;;;;5017970;28;20083;-81
2023/07/02 06:16:52;;;;;;;0.77;0.77;;;19.90;92.40;;;;;;5041668;28;20028;-80
2023/07/02 06:19:18;;;;;;;0.98;0.90;;;19.90;92.40;;;;;;5041798;28;20029;-81
2023/07/02 06:21:44;;;;;;;0.70;0.70;;;19.90;92.50;;;;;;5039357;28;20021;-79
2023/07/02 06:24:09;;;;;;;0.90;0.90;;;19.90;92.50;;;;;;5042826;28;20087;-81
2023/07/02 06:26:35;;;;;;;1.83;1.05;;;19.90;92.50;;;;;;5036197;28;20009;-80
2023/07/02 06:29:01;;;;;;;0.70;0.70;;;20.00;92.50;;;;;;5039367;28;20017;-81
2023/07/02 06:31:26;;;;;;;3.28;1.55;;;20.00;92.60;;;;;;5040948;28;20024;-80
2023/07/02 06:33:52;;;;;;;2.42;1.40;;;20.00;92.60;;;;;;5037195;28;20029;-80
2023/07/02 06:36:19;;;;;;;3.35;1.55;;;20.00;92.70;;;;;;5037618;28;20033;-81
2023/07/02 06:38:57;;;;;;;5.18;1.90;;;20.00;92.60;;;;;;5039141;28;20478;-81
2023/07/02 06:41:23;;;;;;;9.43;1.98;;;20.00;92.80;;;;;;5044113;28;20409;-81
2023/07/02 06:43:48;;;;;;;4.00;2.15;;;20.00;92.80;;;;;;5045356;28;20047;-81
2023/07/02 06:46:14;;;;;;;9.63;2.90;;;20.00;92.70;;;;;;5019860;28;20033;-81
2023/07/02 06:48:39;;;;;;;3.55;2.22;;;20.00;92.80;;;;;;5024084;28;26488;-81
2023/07/02 06:51:05;;;;;;;4.55;2.17;;;20.00;92.80;;;;;;5042309;28;20026;-80
2023/07/02 06:53:31;;;;;;;11.43;2.75;;;20.00;92.80;;;;;;5045180;28;20040;-80
2023/07/02 06:55:56;;;;;;;5.50;2.70;;;20.00;92.80;;;;;;5029891;28;20025;-80
2023/07/02 06:58:22;;;;;;;6.68;3.03;;;20.00;92.80;;;;;;5042416;28;20017;-80
2023/07/02 07:00:47;;;;;;;10.07;3.10;;;20.00;92.90;;;;;;5040541;28;20071;-80
2023/07/02 07:03:13;;;;;;;5.20;2.60;;;20.00;92.80;;;;;;5045295;28;20496;-80
2023/07/02 07:05:39;;;;;;;6.93;2.20;;;20.00;92.80;;;;;;5042130;28;20017;-80
2023/07/02 07:08:04;;;;;;;6.28;2.75;;;20.00;92.80;;;;;;5025678;28;20378;-80
2023/07/02 07:10:34;;;;;;;4.00;2.67;;;20.00;92.80;;;;;;5040369;28;20021;-80
2023/07/02 07:13:01;;;;;;;6.00;2.55;;;20.00;92.80;;;;;;5040634;28;20485;-80
2023/07/02 07:15:27;;;;;;;4.90;2.70;;;20.00;92.80;;;;;;5011655;28;20036;-80
2023/07/02 07:17:52;;;;;;;7.20;3.00;;;20.00;92.80;;;;;;5026065;28;20398;-80
2023/07/02 07:20:18;;;;;;;13.55;3.28;;;20.00;92.80;;;;;;5014742;28;20527;-81
2023/07/02 07:22:43;;;;;;;8.32;3.17;;;20.00;92.90;;;;;;5029941;28;20427;-80
2023/07/02 07:25:09;;;;;;;10.18;3.20;;;20.00;92.70;;;;;;5063120;28;20033;-80
2023/07/02 07:27:35;;;;;;;4.85;2.80;;;19.90;92.70;;;;;;5060574;28;20472;-81
2023/07/02 07:30:01;;;;;;;4.40;2.67;;;20.00;92.70;;;;;;5042559;28;20473;-87
2023/07/02 07:32:26;;;;;;;9.88;2.95;;;19.90;91.80;;;;;;5045099;28;20041;-85
2023/07/02 07:34:52;;;;;;;7.05;2.90;;;19.60;91.70;;;;;;5041750;28;20385;-84
2023/07/02 07:37:18;;;;;;;4.70;2.33;;;19.40;91.90;;;;;;5041388;28;20087;-85
2023/07/02 07:39:43;;;;;;;5.80;2.70;;;19.30;92.40;;;;;;5039240;28;20025;-86
2023/07/02 07:42:09;;;;;;;9.32;3.22;;;19.30;92.60;;;;;;5038346;28;20462;-87
2023/07/02 07:44:34;;;;;;;5.78;3.58;;;19.30;92.70;;;;;;5042159;28;20032;-85
2023/07/02 07:47:00;;;;;;;8.15;3.22;;;19.30;92.80;;;;;;5035992;28;20032;-85
2023/07/02 07:49:26;;;;;;;7.53;3.22;;;19.20;92.60;;;;;;5039603;28;20039;-84
2023/07/02 07:51:52;;;;;;;7.47;2.95;;;19.20;92.50;;;;;;5038408;28;20040;-83
2023/07/02 07:54:17;;;;;;;11.07;3.33;;;19.20;92.40;;;;;;5058444;28;20749;-84
2023/07/02 07:56:43;;;;;;;5.97;2.80;;;19.20;92.50;;;;;;5047225;28;20055;-84
2023/07/02 07:59:11;;;;;;;5.53;2.83;;;19.20;92.70;;;;;;5035288;28;20065;-82
2023/07/02 08:01:36;;;;;;;7.07;3.10;;;19.20;92.50;;;;;;5067808;28;20078;-84
2023/07/02 08:04:02;;;;;;;8.30;3.75;;;19.20;92.50;;;;;;5035613;28;20033;-83
2023/07/02 08:06:27;;;;;;;13.32;3.65;;;19.20;92.60;;;;;;5059938;28;20032;-85
2023/07/02 08:08:53;;;;;;;14.13;3.97;;;19.30;92.30;;;;;;5039237;28;20036;-83
2023/07/02 08:11:19;;;;;;;8.88;3.50;;;19.30;92.20;;;;;;5042513;28;20037;-85
2023/07/02 08:13:44;;;;;;;10.43;4.25;;;19.30;92.40;;;;;;5059354;28;20017;-86
2023/07/02 08:16:10;;;;;;;7.65;3.83;;;19.20;92.50;;;;;;5039578;28;20496;-84
2023/07/02 08:18:35;;;;;;;15.30;4.50;;;19.20;92.30;;;;;;5034763;28;20021;-82
2023/07/02 08:21:01;;;;;;;9.85;4.25;;;19.20;91.90;;;;;;5036287;28;20465;-84
2023/07/02 08:23:27;;;;;;;8.15;4.15;;;19.30;92.20;;;;;;5037887;28;20488;-84
2023/07/02 08:25:52;;;;;;;8.95;4.22;;;19.30;92.10;;;;;;5022884;28;20033;-84
2023/07/02 08:28:18;;;;;;;10.55;4.35;;;19.30;91.90;;;;;;5043041;28;20027;-84
2023/07/02 08:30:44;;;;;;;10.10;4.18;;;19.30;92.00;;;;;;5023346;28;20428;-84
2023/07/02 08:33:09;;;;;;;12.02;5.03;;;19.30;92.00;;;;;;5023387;28;20127;-84
2023/07/02 08:35:36;;;;;;;8.43;4.05;;;19.30;92.10;;;;;;5024561;28;20446;-84
2023/07/02 08:38:02;;;;;;;14.65;5.35;;;19.20;91.80;;;;;;5018437;28;20029;-85
2023/07/02 08:40:28;;;;;;;9.15;4.63;;;19.20;91.80;;;;;;5018277;28;20113;-84
2023/07/02 08:42:54;;;;;;;13.57;5.32;;;19.20;91.60;;;;;;5037203;28;20488;-84
2023/07/02 08:45:24;;;;;;;12.55;5.72;;;19.20;91.40;;;;;;5021750;28;20034;-83
2023/07/02 08:47:50;;;;;;;10.37;5.50;;;19.20;91.60;;;;;;5044072;28;20048;-83
2023/07/02 08:50:16;;;;;;;11.90;5.45;;;19.30;91.50;;;;;;5035610;28;20284;-83
2023/07/02 08:52:45;;;;;;;15.43;5.38;;;19.30;92.00;;;;;;5041078;28;20036;-84
2023/07/02 08:55:11;;;;;;;12.27;5.47;;;19.40;91.60;;;;;;5021515;28;20071;-85
2023/07/02 08:57:36;;;;;;;12.00;4.78;;;19.50;91.80;;;;;;5023376;28;20056;-84
2023/07/02 09:00:10;;;;;;;14.60;5.40;;;19.50;91.00;;;;;;5041012;28;20642;-84
2023/07/02 09:02:35;;;;;;;18.23;4.80;;;19.60;91.10;;;;;;5041993;28;20482;-85
2023/07/02 09:05:02;;;;;;;19.50;5.75;;;19.60;90.60;;;;;;5022305;28;20036;-85
2023/07/02 09:07:28;;;;;;;15.52;5.20;;;19.50;90.50;;;;;;5025306;28;20029;-85
2023/07/02 09:09:54;;;;;;;13.48;5.60;;;19.50;90.20;;;;;;5023048;28;20371;-85
2023/07/02 09:12:26;;;;;;;14.43;5.78;;;19.40;90.00;;;;;;5021969;28;20033;-84
2023/07/02 09:15:05;;;;;;;15.77;5.97;;;19.40;89.50;;;;;;5039622;28;20106;-86
2023/07/02 09:17:36;;;;;;;11.65;5.78;;;19.50;89.90;;;;;;5041403;28;20094;-84
2023/07/02 09:20:06;;;;;;;16.15;5.40;;;19.50;90.00;;;;;;5019712;28;20041;-86
2023/07/02 09:22:32;;;;;;;;;;;19.60;90.40;;;;;;5026285;28;20052;-84
2023/07/02 09:24:59;;;;;;;14.13;5.47;;;19.70;89.90;;;;;;5044172;28;19975;-86
2023/07/02 09:27:36;;;;;;;9.48;5.28;;;19.70;89.60;;;;;;5024570;28;20037;-85
2023/07/02 09:30:15;;;;;;;12.15;4.93;;;19.80;89.60;;;;;;5024116;28;20052;-86
2023/07/02 09:32:41;;;;;;;9.68;4.40;;;19.90;89.80;;;;;;5028071;28;20389;-86
2023/07/02 09:35:06;;;;;;;11.77;4.35;;;19.90;89.50;;;;;;5017205;28;20033;-87
2023/07/02 09:37:33;;;;;;;10.20;5.50;;;19.90;88.50;;;;;;5039625;28;20562;-91
2023/07/02 09:39:58;;;;;;;10.55;4.40;;;19.90;87.80;;;;;;5016366;28;20033;-86
2023/07/02 09:42:29;;;;;;;11.25;5.10;;;19.90;87.50;;;;;;5016679;28;20025;-85
2023/07/02 09:45:01;;;;;;;;;;;19.90;86.90;;;;;;5036248;28;20025;-84
2023/07/02 09:47:34;;;;;;;15.45;5.20;;;19.90;86.30;;;;;;5034820;28;19969;-86
2023/07/02 09:50:05;;;;;;;15.10;5.63;;;19.90;86.30;;;;;;5013406;28;20025;-87
2023/07/02 09:52:32;;;;;;;13.57;5.93;;;19.80;87.00;;;;;;5016012;28;20089;-85
2023/07/02 09:54:59;;;;;;;15.60;5.40;;;19.80;87.10;;;;;;5031236;28;20029;-84
2023/07/02 09:57:24;;;;;;;18.50;5.45;;;19.70;86.70;;;;;;5020507;28;20032;-85
2023/07/02 09:59:50;;;;;;;10.23;4.90;;;19.70;87.30;;;;;;5017131;28;20029;-84
2023/07/02 10:02:16;;;;;;;14.32;5.63;;;19.70;86.20;;;;;;5032455;28;20474;-85
2023/07/02 10:04:46;;;;;;;17.77;5.60;;;19.70;85.60;;;;;;5018425;28;20405;-84
2023/07/02 10:07:13;;;;;;;14.68;5.88;;;19.80;86.30;;;;;;5033887;28;20066;-85
2023/07/02 10:09:46;;;;;;;11.77;5.68;;;19.90;85.20;;;;;;5017542;28;20071;-86
2023/07/02 10:12:23;;;;;;;14.10;5.30;;;20.00;85.40;;;;;;5039343;28;20049;-85
2023/07/02 10:14:51;;;;;;;16.17;5.78;;;20.10;85.60;;;;;;5046889;28;20029;-84
2023/07/02 10:17:34;;;;;;;18.80;6.57;;;20.10;86.60;;;;;;5021666;28;20029;-85
2023/07/02 10:20:07;;;;;;;11.52;5.82;;;20.10;85.60;;;;;;5020950;28;20052;-85
2023/07/02 10:22:53;;;;;;;12.90;6.22;;;20.10;86.00;;;;;;5039770;28;20375;-86
2023/07/02 10:25:39;;;;;;;16.20;6.80;;;20.10;86.10;;;;;;5031420;28;20037;-85
2023/07/02 10:28:22;;;;;;;13.32;5.82;;;20.10;86.10;;;;;;5023947;28;20082;-86
2023/07/02 10:30:48;;;;;;;16.23;6.32;;;20.20;85.60;;;;;;5024002;28;20030;-86
2023/07/02 10:33:15;;;;;;;17.23;7.10;;;20.20;85.20;;;;;;5023914;28;20067;-85
2023/07/02 10:35:44;;;;;;;16.65;7.03;;;20.20;84.90;;;;;;5029890;28;20044;-86
2023/07/02 10:38:30;;;;;;;19.13;7.85;;;20.30;84.80;;;;;;5030239;28;20028;-86
2023/07/02 10:40:57;;;;;;;14.52;7.45;;;20.20;84.40;;;;;;5020988;28;20028;-85
2023/07/02 10:43:27;;;;;;;16.27;7.72;;;20.10;84.20;;;;;;5028605;28;20379;-85
2023/07/02 10:45:53;;;;;;;16.27;7.20;;;20.00;83.60;;;;;;5043819;28;20440;-85
2023/07/02 10:48:18;;;;;;;22.27;8.38;;;20.10;84.30;;;;;;5019878;28;20044;-85
2023/07/02 10:50:44;;;;;;;18.58;7.90;;;20.20;83.70;;;;;;5022085;28;20014;-83
2023/07/02 10:53:17;;;;;;;17.27;8.13;;;20.30;82.50;;;;;;5018938;28;20048;-85
2023/07/02 10:55:43;;;;;;;23.08;8.00;;;20.40;83.10;;;;;;5023034;28;20547;-87
2023/07/02 10:58:11;;;;;;;15.93;6.57;;;20.50;83.90;;;;;;5023974;28;20078;-90
2023/07/02 11:00:48;;;;;;;23.75;9.15;;;20.60;83.30;;;;;;5021741;28;20026;-85
2023/07/02 11:03:23;;;;;;;15.80;7.95;;;20.60;83.20;;;;;;5028403;28;20072;-88
2023/07/02 11:05:50;;;;;;;17.08;7.85;;;20.60;81.40;;;;;;5027050;28;20530;-85
2023/07/02 11:08:16;;;;;;;16.02;7.30;;;20.60;79.70;;;;;;5020519;28;20469;-85
2023/07/02 11:10:43;;;;;;;23.10;8.40;;;20.60;80.80;;;;;;5025697;28;20032;-84
2023/07/02 11:13:13;;;;;;;22.95;7.97;;;20.70;80.00;;;;;;5021229;28;20136;-84
2023/07/02 11:15:40;;;;;;;;;;;20.70;79.70;;;;;;5040706;28;20028;-84
2023/07/02 11:18:16;;;;;;;18.50;7.28;;;20.80;79.10;;;;;;5027440;28;19909;-86
2023/07/02 11:20:44;;;;;;;14.07;6.20;;;20.70;78.70;;;;;;5047541;28;20040;-85
2023/07/02 11:23:23;;;;;;;19.48;9.05;;;20.70;78.30;;;;;;5044286;28;20029;-84
2023/07/02 11:26:02;;;;;;;23.33;9.27;;;20.80;78.20;;;;;;5045410;28;20147;-84
2023/07/02 11:28:29;;;;;;;20.90;10.02;;;20.90;76.50;;;;;;5060421;28;20056;-84
2023/07/02 11:30:55;;;;;;;21.33;9.65;;;20.80;76.40;;;;;;5046099;28;20104;-85
2023/07/02 11:33:41;;;;;;;19.23;8.98;;;20.80;75.20;;;;;;5048998;28;20128;-84
2023/07/02 11:36:08;;;;;;;23.77;9.63;;;20.80;74.70;;;;;;5068744;28;20173;-85
2023/07/02 11:38:35;;;;;;;23.48;8.85;;;20.90;75.00;;;;;;5050089;28;20040;-84
2023/07/02 11:41:03;;;;;;;20.55;9.52;;;21.00;72.90;;;;;;5043727;28;20036;-82
2023/07/02 11:43:29;;;;;;;21.75;9.50;;;21.00;72.10;;;;;;5063610;28;20543;-84
2023/07/02 11:45:54;;;;;;;18.67;9.27;;;21.10;72.80;;;;;;5043952;28;20024;-85
2023/07/02 11:48:20;;;;;;;22.88;9.98;;;21.10;72.50;;;;;;5044043;28;20081;-84
2023/07/02 11:50:45;;;;;;;23.42;10.80;;;21.20;73.00;;;;;;5046663;28;20097;-85
2023/07/02 11:53:11;;;;;;;20.25;8.98;;;21.10;72.30;;;;;;5049180;28;20028;-85
2023/07/02 11:55:37;;;;;;;16.67;8.93;;;21.10;72.70;;;;;;5043604;28;20059;-84
2023/07/02 11:58:03;;;;;;;23.55;10.48;;;21.20;73.20;;;;;;5067236;28;20522;-84
2023/07/02 12:00:28;;;;;;;20.70;7.57;;;21.30;74.40;;;;;;5044092;28;20032;-85
2023/07/02 12:02:54;;;;;;;24.08;11.30;;;21.30;73.90;;;;;;5049870;28;20198;-83
2023/07/02 12:05:20;;;;;;;24.35;9.98;;;21.30;72.10;;;;;;5067548;28;20101;-85
2023/07/02 12:07:46;;;;;;;24.25;10.60;;;21.30;72.80;;;;;;5043929;28;20480;-84
2023/07/02 12:10:12;;;;;;;25.10;11.45;;;21.40;72.50;;;;;;5047852;28;20074;-88
2023/07/02 12:12:37;;;;;;;25.50;10.77;;;21.40;72.40;;;;;;5049278;28;20400;-86
2023/07/02 12:15:03;;;;;;;24.30;10.88;;;21.40;70.60;;;;;;5057602;28;20024;-84
2023/07/02 12:17:29;;;;;;;19.55;9.65;;;21.40;70.20;;;;;;5045619;28;20037;-88
2023/07/02 12:19:58;;;;;;;26.38;11.57;;;21.40;70.60;;;;;;5043150;28;20020;-84
2023/07/02 12:22:24;;;;;;;30.15;11.52;;;21.50;70.80;;;;;;5039892;28;20036;-85
2023/07/02 12:24:50;;;;;;;28.83;11.35;;;21.50;71.60;;;;;;5046053;28;20024;-89
2023/07/02 12:27:16;;;;;;;23.08;11.43;;;21.60;70.70;;;;;;5040038;28;20032;-85
2023/07/02 12:29:41;;;;;;;27.08;11.70;;;21.60;69.50;;;;;;5044641;28;20035;-85
2023/07/02 12:32:07;;;;;;;36.75;12.98;;;21.40;69.50;;;;;;5045304;28;20039;-85
2023/07/02 12:34:33;;;;;;;29.08;11.70;;;21.30;70.20;;;;;;5047371;28;20412;-84
2023/07/02 12:36:58;;;;;;;36.05;13.10;;;21.30;70.70;;;;;;5046143;28;20135;-84
2023/07/02 12:39:24;;;;;;;26.67;11.45;;;21.30;71.00;;;;;;5059109;28;20798;-85
2023/07/02 12:41:52;;;;;;;29.77;11.93;;;21.40;69.20;;;;;;5046830;28;20401;-85